Terminal Aerodrome Forecast
Issued by NWS

Home | Current Version | Previous Version | Text Only | Print | Product List | Glossary On
Versions: 1 2 3 4 5 6 7 8 9 10 11 12 13 14 15 16 17 18 19 20 21 22 23 24 25 26 27 28 29 30 31 32 33 34 35 36 37 38 39 40
000
FTUS44 KHGX 061410 CCA
TAFLBX
TAF COR
KLBX 061410Z 0614/0712 14010KT P6SM VCSH FEW018 BKN024 OVC050
     FM061700 14014KT P6SM VCTS SCT025 BKN040CB
     FM070200 14009KT P6SM SCT015
     FM070600 14009KT P6SM SCT007 BKN015=

USA.gov is the U.S. government's official web portal to all federal, state and local government web resources and services.